sensor_id;sensor_type;location;lat;lon;timestamp;P1;durP1;ratioP1;P2;durP2;ratioP2
33022;SDS011;19390;51.460;5.710;2022-11-15T00:01:36;29.90;;;20.50;;
33022;SDS011;19390;51.460;5.710;2022-11-15T00:04:02;34.80;;;20.60;;
33022;SDS011;19390;51.460;5.710;2022-11-15T00:06:28;30.30;;;21.38;;
33022;SDS011;19390;51.460;5.710;2022-11-15T00:08:54;31.02;;;20.25;;
33022;SDS011;19390;51.460;5.710;2022-11-15T00:11:22;35.45;;;20.15;;
33022;SDS011;19390;51.460;5.710;2022-11-15T00:13:48;32.72;;;20.85;;
33022;SDS011;19390;51.460;5.710;2022-11-15T00:16:13;32.88;;;21.13;;
33022;SDS011;19390;51.460;5.710;2022-11-15T00:18:39;32.58;;;20.67;;
33022;SDS011;19390;51.460;5.710;2022-11-15T00:21:06;30.65;;;21.35;;
33022;SDS011;19390;51.460;5.710;2022-11-15T00:23:35;32.03;;;20.25;;
33022;SDS011;19390;51.460;5.710;2022-11-15T00:26:01;29.38;;;19.63;;
33022;SDS011;19390;51.460;5.710;2022-11-15T00:28:27;29.38;;;20.40;;
33022;SDS011;19390;51.460;5.710;2022-11-15T00:30:53;30.92;;;20.65;;
33022;SDS011;19390;51.460;5.710;2022-11-15T00:33:18;31.55;;;20.73;;
33022;SDS011;19390;51.460;5.710;2022-11-15T00:35:45;31.02;;;19.63;;
33022;SDS011;19390;51.460;5.710;2022-11-15T00:38:10;30.83;;;21.00;;
33022;SDS011;19390;51.460;5.710;2022-11-15T00:40:36;26.38;;;19.17;;
33022;SDS011;19390;51.460;5.710;2022-11-15T00:43:01;32.15;;;20.92;;
33022;SDS011;19390;51.460;5.710;2022-11-15T00:45:27;31.17;;;19.95;;
33022;SDS011;19390;51.460;5.710;2022-11-15T00:47:53;27.98;;;18.23;;
33022;SDS011;19390;51.460;5.710;2022-11-15T00:50:18;34.20;;;20.65;;
33022;SDS011;19390;51.460;5.710;2022-11-15T00:52:44;30.73;;;19.92;;
33022;SDS011;19390;51.460;5.710;2022-11-15T00:55:13;31.42;;;20.73;;
33022;SDS011;19390;51.460;5.710;2022-11-15T00:57:43;28.75;;;20.10;;
33022;SDS011;19390;51.460;5.710;2022-11-15T01:00:09;29.25;;;19.63;;
33022;SDS011;19390;51.460;5.710;2022-11-15T01:02:35;32.50;;;20.50;;
33022;SDS011;19390;51.460;5.710;2022-11-15T01:05:01;30.90;;;21.05;;
33022;SDS011;19390;51.460;5.710;2022-11-15T01:07:27;30.67;;;19.95;;
33022;SDS011;19390;51.460;5.710;2022-11-15T01:09:53;30.77;;;21.70;;
33022;SDS011;19390;51.460;5.710;2022-11-15T01:12:18;31.05;;;20.90;;
33022;SDS011;19390;51.460;5.710;2022-11-15T01:14:44;33.47;;;23.58;;
33022;SDS011;19390;51.460;5.710;2022-11-15T01:17:09;30.30;;;21.17;;
33022;SDS011;19390;51.460;5.710;2022-11-15T01:19:35;29.45;;;20.75;;
33022;SDS011;19390;51.460;5.710;2022-11-15T01:22:01;32.88;;;20.80;;
33022;SDS011;19390;51.460;5.710;2022-11-15T01:24:26;29.70;;;20.75;;
33022;SDS011;19390;51.460;5.710;2022-11-15T01:26:52;27.05;;;20.13;;
33022;SDS011;19390;51.460;5.710;2022-11-15T01:29:17;30.27;;;21.15;;
33022;SDS011;19390;51.460;5.710;2022-11-15T01:31:43;34.65;;;22.50;;
33022;SDS011;19390;51.460;5.710;2022-11-15T01:34:09;30.00;;;20.65;;
33022;SDS011;19390;51.460;5.710;2022-11-15T01:36:34;33.65;;;22.80;;
33022;SDS011;19390;51.460;5.710;2022-11-15T01:39:00;37.22;;;23.15;;
33022;SDS011;19390;51.460;5.710;2022-11-15T01:41:27;28.95;;;20.48;;
33022;SDS011;19390;51.460;5.710;2022-11-15T01:47:01;35.42;;;23.38;;
33022;SDS011;19390;51.460;5.710;2022-11-15T01:49:30;38.90;;;24.73;;
33022;SDS011;19390;51.460;5.710;2022-11-15T01:51:57;33.45;;;22.45;;
33022;SDS011;19390;51.460;5.710;2022-11-15T01:54:25;34.33;;;22.27;;
33022;SDS011;19390;51.460;5.710;2022-11-15T01:56:52;34.05;;;21.58;;
33022;SDS011;19390;51.460;5.710;2022-11-15T01:59:22;38.30;;;24.23;;
33022;SDS011;19390;51.460;5.710;2022-11-15T02:01:48;37.05;;;23.70;;
33022;SDS011;19390;51.460;5.710;2022-11-15T02:07:16;35.75;;;24.08;;
33022;SDS011;19390;51.460;5.710;2022-11-15T02:09:43;36.05;;;24.02;;
33022;SDS011;19390;51.460;5.710;2022-11-15T02:12:09;40.47;;;25.75;;
33022;SDS011;19390;51.460;5.710;2022-11-15T02:14:38;40.15;;;25.45;;
33022;SDS011;19390;51.460;5.710;2022-11-15T02:20:10;34.05;;;23.00;;
33022;SDS011;19390;51.460;5.710;2022-11-15T02:22:51;38.85;;;24.42;;
33022;SDS011;19390;51.460;5.710;2022-11-15T02:25:35;34.65;;;23.50;;
33022;SDS011;19390;51.460;5.710;2022-11-15T02:28:30;39.95;;;24.67;;
33022;SDS011;19390;51.460;5.710;2022-11-15T02:36:42;38.72;;;23.90;;
33022;SDS011;19390;51.460;5.710;2022-11-15T02:41:52;35.83;;;24.92;;
33022;SDS011;19390;51.460;5.710;2022-11-15T02:44:26;38.50;;;24.52;;
33022;SDS011;19390;51.460;5.710;2022-11-15T02:46:58;37.22;;;23.70;;
33022;SDS011;19390;51.460;5.710;2022-11-15T02:49:43;33.58;;;22.90;;
33022;SDS011;19390;51.460;5.710;2022-11-15T02:52:21;35.00;;;23.02;;
33022;SDS011;19390;51.460;5.710;2022-11-15T02:54:53;28.77;;;21.95;;
33022;SDS011;19390;51.460;5.710;2022-11-15T03:00:15;33.00;;;22.30;;
33022;SDS011;19390;51.460;5.710;2022-11-15T03:02:56;31.70;;;20.92;;
33022;SDS011;19390;51.460;5.710;2022-11-15T03:08:25;37.10;;;22.15;;
33022;SDS011;19390;51.460;5.710;2022-11-15T03:11:12;38.65;;;23.85;;
33022;SDS011;19390;51.460;5.710;2022-11-15T03:19:06;33.38;;;21.80;;
33022;SDS011;19390;51.460;5.710;2022-11-15T03:21:48;36.20;;;22.90;;
33022;SDS011;19390;51.460;5.710;2022-11-15T03:24:16;38.03;;;22.90;;
33022;SDS011;19390;51.460;5.710;2022-11-15T03:26:44;31.48;;;22.45;;
33022;SDS011;19390;51.460;5.710;2022-11-15T03:29:30;29.77;;;21.92;;
33022;SDS011;19390;51.460;5.710;2022-11-15T03:32:33;29.40;;;21.02;;
33022;SDS011;19390;51.460;5.710;2022-11-15T03:35:01;36.20;;;23.95;;
33022;SDS011;19390;51.460;5.710;2022-11-15T03:37:49;34.35;;;22.50;;
33022;SDS011;19390;51.460;5.710;2022-11-15T03:40:38;33.25;;;22.90;;
33022;SDS011;19390;51.460;5.710;2022-11-15T03:45:42;32.47;;;22.35;;
33022;SDS011;19390;51.460;5.710;2022-11-15T03:48:14;33.30;;;22.80;;
33022;SDS011;19390;51.460;5.710;2022-11-15T03:50:46;34.17;;;22.95;;
33022;SDS011;19390;51.460;5.710;2022-11-15T03:53:13;31.83;;;21.88;;
33022;SDS011;19390;51.460;5.710;2022-11-15T03:55:39;30.90;;;21.73;;
33022;SDS011;19390;51.460;5.710;2022-11-15T03:58:05;34.47;;;21.70;;
33022;SDS011;19390;51.460;5.710;2022-11-15T04:00:31;28.45;;;20.17;;
33022;SDS011;19390;51.460;5.710;2022-11-15T04:02:57;29.85;;;22.08;;
33022;SDS011;19390;51.460;5.710;2022-11-15T04:05:22;30.20;;;20.02;;
33022;SDS011;19390;51.460;5.710;2022-11-15T04:07:48;33.00;;;20.73;;
33022;SDS011;19390;51.460;5.710;2022-11-15T04:10:14;31.80;;;20.15;;
33022;SDS011;19390;51.460;5.710;2022-11-15T04:12:41;27.50;;;20.55;;
33022;SDS011;19390;51.460;5.710;2022-11-15T04:15:09;29.27;;;20.02;;
33022;SDS011;19390;51.460;5.710;2022-11-15T04:17:41;35.50;;;21.80;;
33022;SDS011;19390;51.460;5.710;2022-11-15T04:20:20;31.17;;;22.45;;
33022;SDS011;19390;51.460;5.710;2022-11-15T04:23:08;28.77;;;19.75;;
33022;SDS011;19390;51.460;5.710;2022-11-15T04:25:54;29.95;;;19.98;;
33022;SDS011;19390;51.460;5.710;2022-11-15T04:28:22;27.33;;;19.73;;
33022;SDS011;19390;51.460;5.710;2022-11-15T04:30:48;32.65;;;22.45;;
33022;SDS011;19390;51.460;5.710;2022-11-15T04:33:14;28.75;;;19.45;;
33022;SDS011;19390;51.460;5.710;2022-11-15T04:35:41;24.80;;;18.45;;
33022;SDS011;19390;51.460;5.710;2022-11-15T04:38:07;26.58;;;19.73;;
33022;SDS011;19390;51.460;5.710;2022-11-15T04:40:34;30.48;;;20.98;;
33022;SDS011;19390;51.460;5.710;2022-11-15T04:43:01;24.73;;;17.95;;
33022;SDS011;19390;51.460;5.710;2022-11-15T04:45:27;30.60;;;19.80;;
33022;SDS011;19390;51.460;5.710;2022-11-15T04:47:53;24.90;;;18.85;;
33022;SDS011;19390;51.460;5.710;2022-11-15T04:50:18;29.13;;;20.50;;
33022;SDS011;19390;51.460;5.710;2022-11-15T04:52:49;28.70;;;20.25;;
33022;SDS011;19390;51.460;5.710;2022-11-15T04:55:16;29.65;;;19.23;;
33022;SDS011;19390;51.460;5.710;2022-11-15T04:57:42;32.75;;;20.27;;
33022;SDS011;19390;51.460;5.710;2022-11-15T05:00:09;26.20;;;19.10;;
33022;SDS011;19390;51.460;5.710;2022-11-15T05:02:37;28.58;;;18.98;;
33022;SDS011;19390;51.460;5.710;2022-11-15T05:05:24;29.35;;;21.65;;
33022;SDS011;19390;51.460;5.710;2022-11-15T05:07:50;32.40;;;22.67;;
33022;SDS011;19390;51.460;5.710;2022-11-15T05:10:15;31.15;;;21.33;;
33022;SDS011;19390;51.460;5.710;2022-11-15T05:12:41;40.78;;;26.80;;
33022;SDS011;19390;51.460;5.710;2022-11-15T05:15:07;32.92;;;20.88;;
33022;SDS011;19390;51.460;5.710;2022-11-15T05:17:33;31.65;;;23.50;;
33022;SDS011;19390;51.460;5.710;2022-11-15T05:19:59;36.80;;;25.40;;
33022;SDS011;19390;51.460;5.710;2022-11-15T05:22:25;40.25;;;26.63;;
33022;SDS011;19390;51.460;5.710;2022-11-15T05:24:51;33.95;;;22.10;;
33022;SDS011;19390;51.460;5.710;2022-11-15T05:27:17;59.25;;;42.78;;
33022;SDS011;19390;51.460;5.710;2022-11-15T05:29:43;37.78;;;27.25;;
33022;SDS011;19390;51.460;5.710;2022-11-15T05:32:08;46.15;;;30.48;;
33022;SDS011;19390;51.460;5.710;2022-11-15T05:34:35;30.95;;;22.42;;
33022;SDS011;19390;51.460;5.710;2022-11-15T05:37:00;30.60;;;23.63;;
33022;SDS011;19390;51.460;5.710;2022-11-15T05:39:26;36.20;;;24.13;;
33022;SDS011;19390;51.460;5.710;2022-11-15T05:41:52;29.92;;;19.92;;
33022;SDS011;19390;51.460;5.710;2022-11-15T05:44:22;41.35;;;36.97;;
33022;SDS011;19390;51.460;5.710;2022-11-15T05:46:49;30.27;;;20.08;;
33022;SDS011;19390;51.460;5.710;2022-11-15T05:49:18;31.17;;;22.30;;
33022;SDS011;19390;51.460;5.710;2022-11-15T05:51:46;27.77;;;21.08;;
33022;SDS011;19390;51.460;5.710;2022-11-15T05:54:14;26.30;;;20.23;;
33022;SDS011;19390;51.460;5.710;2022-11-15T05:56:40;37.28;;;23.35;;
33022;SDS011;19390;51.460;5.710;2022-11-15T05:59:07;31.23;;;21.55;;
33022;SDS011;19390;51.460;5.710;2022-11-15T06:01:33;35.15;;;24.48;;
33022;SDS011;19390;51.460;5.710;2022-11-15T06:03:59;29.55;;;21.58;;
33022;SDS011;19390;51.460;5.710;2022-11-15T06:06:27;36.78;;;25.10;;
33022;SDS011;19390;51.460;5.710;2022-11-15T06:08:53;44.03;;;25.05;;
33022;SDS011;19390;51.460;5.710;2022-11-15T06:11:19;38.20;;;25.13;;
33022;SDS011;19390;51.460;5.710;2022-11-15T06:13:44;28.85;;;20.15;;
33022;SDS011;19390;51.460;5.710;2022-11-15T06:16:10;40.10;;;26.67;;
33022;SDS011;19390;51.460;5.710;2022-11-15T06:18:36;41.50;;;26.05;;
33022;SDS011;19390;51.460;5.710;2022-11-15T06:21:02;49.08;;;24.33;;
33022;SDS011;19390;51.460;5.710;2022-11-15T06:23:28;30.17;;;21.52;;
33022;SDS011;19390;51.460;5.710;2022-11-15T06:25:57;30.58;;;21.23;;
33022;SDS011;19390;51.460;5.710;2022-11-15T06:28:24;42.10;;;27.42;;
33022;SDS011;19390;51.460;5.710;2022-11-15T06:30:49;31.48;;;21.75;;
33022;SDS011;19390;51.460;5.710;2022-11-15T06:33:15;21.95;;;15.48;;
33022;SDS011;19390;51.460;5.710;2022-11-15T06:35:41;26.63;;;16.73;;
33022;SDS011;19390;51.460;5.710;2022-11-15T06:38:07;24.63;;;17.08;;
33022;SDS011;19390;51.460;5.710;2022-11-15T06:40:35;25.60;;;18.60;;
33022;SDS011;19390;51.460;5.710;2022-11-15T06:43:02;23.63;;;17.13;;
33022;SDS011;19390;51.460;5.710;2022-11-15T06:45:28;24.98;;;17.45;;
33022;SDS011;19390;51.460;5.710;2022-11-15T06:47:54;23.90;;;16.30;;
33022;SDS011;19390;51.460;5.710;2022-11-15T06:50:20;26.30;;;18.23;;
33022;SDS011;19390;51.460;5.710;2022-11-15T06:52:46;30.33;;;19.73;;
33022;SDS011;19390;51.460;5.710;2022-11-15T06:55:11;31.60;;;21.15;;
33022;SDS011;19390;51.460;5.710;2022-11-15T06:57:37;31.00;;;19.45;;
33022;SDS011;19390;51.460;5.710;2022-11-15T07:00:15;26.20;;;18.80;;
33022;SDS011;19390;51.460;5.710;2022-11-15T07:02:42;27.10;;;17.33;;
33022;SDS011;19390;51.460;5.710;2022-11-15T07:05:08;20.83;;;15.15;;
33022;SDS011;19390;51.460;5.710;2022-11-15T07:07:33;25.63;;;15.70;;
33022;SDS011;19390;51.460;5.710;2022-11-15T07:09:59;26.80;;;16.33;;
33022;SDS011;19390;51.460;5.710;2022-11-15T07:12:25;23.15;;;13.52;;
33022;SDS011;19390;51.460;5.710;2022-11-15T07:14:50;23.73;;;14.70;;
33022;SDS011;19390;51.460;5.710;2022-11-15T07:17:16;20.38;;;15.00;;
33022;SDS011;19390;51.460;5.710;2022-11-15T07:19:41;25.35;;;15.95;;
33022;SDS011;19390;51.460;5.710;2022-11-15T07:22:07;22.65;;;13.75;;
33022;SDS011;19390;51.460;5.710;2022-11-15T07:24:33;27.42;;;15.75;;
33022;SDS011;19390;51.460;5.710;2022-11-15T07:26:58;26.50;;;15.02;;
33022;SDS011;19390;51.460;5.710;2022-11-15T07:29:24;21.80;;;14.65;;
33022;SDS011;19390;51.460;5.710;2022-11-15T07:31:49;26.13;;;14.68;;
33022;SDS011;19390;51.460;5.710;2022-11-15T07:34:15;21.10;;;13.68;;
33022;SDS011;19390;51.460;5.710;2022-11-15T07:36:41;18.13;;;12.52;;
33022;SDS011;19390;51.460;5.710;2022-11-15T07:39:07;23.55;;;13.65;;
33022;SDS011;19390;51.460;5.710;2022-11-15T07:41:32;18.40;;;13.27;;
33022;SDS011;19390;51.460;5.710;2022-11-15T07:43:58;21.60;;;14.20;;
33022;SDS011;19390;51.460;5.710;2022-11-15T07:46:24;16.35;;;11.63;;
33022;SDS011;19390;51.460;5.710;2022-11-15T07:48:49;24.23;;;14.05;;
33022;SDS011;19390;51.460;5.710;2022-11-15T07:51:15;22.70;;;13.65;;
33022;SDS011;19390;51.460;5.710;2022-11-15T07:53:42;21.05;;;14.13;;
33022;SDS011;19390;51.460;5.710;2022-11-15T07:56:08;21.08;;;13.23;;
33022;SDS011;19390;51.460;5.710;2022-11-15T07:58:34;22.45;;;14.18;;
33022;SDS011;19390;51.460;5.710;2022-11-15T08:01:04;19.25;;;12.93;;
33022;SDS011;19390;51.460;5.710;2022-11-15T08:03:31;24.13;;;14.02;;
33022;SDS011;19390;51.460;5.710;2022-11-15T08:05:58;18.63;;;11.80;;
33022;SDS011;19390;51.460;5.710;2022-11-15T08:08:24;21.60;;;12.63;;
33022;SDS011;19390;51.460;5.710;2022-11-15T08:10:49;15.13;;;9.95;;
33022;SDS011;19390;51.460;5.710;2022-11-15T08:13:15;19.65;;;12.63;;
33022;SDS011;19390;51.460;5.710;2022-11-15T08:15:41;15.77;;;10.35;;
33022;SDS011;19390;51.460;5.710;2022-11-15T08:18:11;15.88;;;10.65;;
33022;SDS011;19390;51.460;5.710;2022-11-15T08:20:39;21.02;;;12.40;;
33022;SDS011;19390;51.460;5.710;2022-11-15T08:23:05;20.20;;;11.35;;
33022;SDS011;19390;51.460;5.710;2022-11-15T08:25:33;21.05;;;12.43;;
33022;SDS011;19390;51.460;5.710;2022-11-15T08:28:01;22.83;;;12.00;;
33022;SDS011;19390;51.460;5.710;2022-11-15T08:30:29;21.67;;;12.30;;
33022;SDS011;19390;51.460;5.710;2022-11-15T08:32:56;18.25;;;12.25;;
33022;SDS011;19390;51.460;5.710;2022-11-15T08:35:23;17.85;;;11.18;;
33022;SDS011;19390;51.460;5.710;2022-11-15T08:37:49;17.80;;;10.77;;
33022;SDS011;19390;51.460;5.710;2022-11-15T08:40:15;16.25;;;10.95;;
33022;SDS011;19390;51.460;5.710;2022-11-15T08:42:41;13.07;;;9.93;;
33022;SDS011;19390;51.460;5.710;2022-11-15T08:45:07;11.55;;;9.73;;
33022;SDS011;19390;51.460;5.710;2022-11-15T08:47:33;14.43;;;9.07;;
33022;SDS011;19390;51.460;5.710;2022-11-15T08:49:59;8.82;;;7.68;;
33022;SDS011;19390;51.460;5.710;2022-11-15T08:52:25;10.95;;;8.77;;
33022;SDS011;19390;51.460;5.710;2022-11-15T08:54:51;11.82;;;7.72;;
33022;SDS011;19390;51.460;5.710;2022-11-15T08:57:16;14.48;;;7.57;;
33022;SDS011;19390;51.460;5.710;2022-11-15T08:59:42;9.38;;;7.00;;
33022;SDS011;19390;51.460;5.710;2022-11-15T09:02:12;10.23;;;6.82;;
33022;SDS011;19390;51.460;5.710;2022-11-15T09:04:39;11.10;;;6.70;;
33022;SDS011;19390;51.460;5.710;2022-11-15T09:07:06;8.05;;;5.97;;
33022;SDS011;19390;51.460;5.710;2022-11-15T09:09:32;9.90;;;6.03;;
33022;SDS011;19390;51.460;5.710;2022-11-15T09:11:57;8.70;;;5.40;;
33022;SDS011;19390;51.460;5.710;2022-11-15T09:14:23;7.68;;;5.65;;
33022;SDS011;19390;51.460;5.710;2022-11-15T09:16:49;8.02;;;5.97;;
33022;SDS011;19390;51.460;5.710;2022-11-15T09:19:14;9.80;;;5.85;;
33022;SDS011;19390;51.460;5.710;2022-11-15T09:21:40;7.82;;;5.25;;
33022;SDS011;19390;51.460;5.710;2022-11-15T09:24:06;5.60;;;4.72;;
33022;SDS011;19390;51.460;5.710;2022-11-15T09:26:31;8.82;;;5.28;;
33022;SDS011;19390;51.460;5.710;2022-11-15T09:28:57;6.45;;;4.13;;
33022;SDS011;19390;51.460;5.710;2022-11-15T09:31:23;6.90;;;4.45;;
33022;SDS011;19390;51.460;5.710;2022-11-15T09:33:49;6.57;;;4.90;;
33022;SDS011;19390;51.460;5.710;2022-11-15T09:36:15;7.18;;;4.05;;
33022;SDS011;19390;51.460;5.710;2022-11-15T09:38:41;8.73;;;4.00;;
33022;SDS011;19390;51.460;5.710;2022-11-15T09:48:58;5.40;;;3.47;;
33022;SDS011;19390;51.460;5.710;2022-11-15T09:51:27;7.20;;;3.08;;
33022;SDS011;19390;51.460;5.710;2022-11-15T09:56:30;8.43;;;2.90;;
33022;SDS011;19390;51.460;5.710;2022-11-15T09:59:00;3.25;;;2.45;;
33022;SDS011;19390;51.460;5.710;2022-11-15T10:01:44;7.55;;;2.78;;
33022;SDS011;19390;51.460;5.710;2022-11-15T10:04:40;4.43;;;1.70;;
33022;SDS011;19390;51.460;5.710;2022-11-15T10:09:43;6.03;;;1.90;;
33022;SDS011;19390;51.460;5.710;2022-11-15T10:12:36;4.95;;;1.70;;
33022;SDS011;19390;51.460;5.710;2022-11-15T10:15:11;6.30;;;1.80;;
33022;SDS011;19390;51.460;5.710;2022-11-15T10:17:58;6.97;;;1.50;;
33022;SDS011;19390;51.460;5.710;2022-11-15T10:23:14;5.05;;;1.38;;
33022;SDS011;19390;51.460;5.710;2022-11-15T10:25:42;3.20;;;2.03;;
33022;SDS011;19390;51.460;5.710;2022-11-15T10:30:41;5.55;;;1.55;;
33022;SDS011;19390;51.460;5.710;2022-11-15T10:33:30;6.40;;;1.58;;
33022;SDS011;19390;51.460;5.710;2022-11-15T10:39:10;4.68;;;1.35;;
33022;SDS011;19390;51.460;5.710;2022-11-15T10:44:18;4.45;;;1.55;;
33022;SDS011;19390;51.460;5.710;2022-11-15T10:46:47;10.32;;;1.80;;
33022;SDS011;19390;51.460;5.710;2022-11-15T10:49:34;5.45;;;1.70;;
33022;SDS011;19390;51.460;5.710;2022-11-15T10:52:04;4.53;;;1.48;;
33022;SDS011;19390;51.460;5.710;2022-11-15T10:54:43;4.45;;;1.33;;
33022;SDS011;19390;51.460;5.710;2022-11-15T11:02:58;3.90;;;1.63;;
33022;SDS011;19390;51.460;5.710;2022-11-15T11:05:30;3.05;;;1.45;;
33022;SDS011;19390;51.460;5.710;2022-11-15T11:08:02;4.80;;;1.40;;
33022;SDS011;19390;51.460;5.710;2022-11-15T11:10:28;5.35;;;1.42;;
33022;SDS011;19390;51.460;5.710;2022-11-15T11:12:54;5.13;;;1.45;;
33022;SDS011;19390;51.460;5.710;2022-11-15T11:15:20;4.15;;;1.60;;
33022;SDS011;19390;51.460;5.710;2022-11-15T11:18:02;2.85;;;1.70;;
33022;SDS011;19390;51.460;5.710;2022-11-15T11:20:54;3.30;;;1.50;;
33022;SDS011;19390;51.460;5.710;2022-11-15T11:33:54;3.45;;;1.15;;
33022;SDS011;19390;51.460;5.710;2022-11-15T11:39:16;5.70;;;1.20;;
33022;SDS011;19390;51.460;5.710;2022-11-15T11:47:30;6.85;;;1.20;;
33022;SDS011;19390;51.460;5.710;2022-11-15T11:50:02;4.43;;;1.10;;
33022;SDS011;19390;51.460;5.710;2022-11-15T11:52:53;4.35;;;1.10;;
33022;SDS011;19390;51.460;5.710;2022-11-15T11:55:32;5.00;;;1.25;;
33022;SDS011;19390;51.460;5.710;2022-11-15T11:58:11;6.70;;;1.20;;
33022;SDS011;19390;51.460;5.710;2022-11-15T12:00:41;4.57;;;1.25;;
33022;SDS011;19390;51.460;5.710;2022-11-15T12:03:28;4.82;;;1.08;;
33022;SDS011;19390;51.460;5.710;2022-11-15T12:14:58;4.00;;;1.20;;
33022;SDS011;19390;51.460;5.710;2022-11-15T12:17:34;6.05;;;1.40;;
33022;SDS011;19390;51.460;5.710;2022-11-15T12:20:03;5.35;;;1.38;;
33022;SDS011;19390;51.460;5.710;2022-11-15T12:28:18;7.35;;;1.60;;
33022;SDS011;19390;51.460;5.710;2022-11-15T12:33:40;6.65;;;1.33;;
33022;SDS011;19390;51.460;5.710;2022-11-15T12:36:11;2.67;;;0.88;;
33022;SDS011;19390;51.460;5.710;2022-11-15T12:38:58;6.18;;;1.08;;
33022;SDS011;19390;51.460;5.710;2022-11-15T12:41:32;3.95;;;1.25;;
33022;SDS011;19390;51.460;5.710;2022-11-15T12:44:00;3.22;;;1.10;;
33022;SDS011;19390;51.460;5.710;2022-11-15T12:48:56;4.03;;;0.80;;
33022;SDS011;19390;51.460;5.710;2022-11-15T13:02:35;6.07;;;0.75;;
33022;SDS011;19390;51.460;5.710;2022-11-15T13:17:49;10.23;;;1.33;;
33022;SDS011;19390;51.460;5.710;2022-11-15T13:20:20;5.03;;;0.82;;
33022;SDS011;19390;51.460;5.710;2022-11-15T13:22:48;3.50;;;1.10;;
33022;SDS011;19390;51.460;5.710;2022-11-15T13:28:00;6.45;;;1.00;;
33022;SDS011;19390;51.460;5.710;2022-11-15T13:33:16;3.25;;;1.00;;
33022;SDS011;19390;51.460;5.710;2022-11-15T13:35:45;5.03;;;1.10;;
33022;SDS011;19390;51.460;5.710;2022-11-15T13:40:55;6.88;;;1.13;;
33022;SDS011;19390;51.460;5.710;2022-11-15T13:46:07;8.60;;;0.93;;
33022;SDS011;19390;51.460;5.710;2022-11-15T13:48:50;4.88;;;0.70;;
33022;SDS011;19390;51.460;5.710;2022-11-15T13:51:25;3.70;;;0.90;;
33022;SDS011;19390;51.460;5.710;2022-11-15T13:54:13;7.80;;;1.15;;
33022;SDS011;19390;51.460;5.710;2022-11-15T13:57:02;5.47;;;0.88;;
33022;SDS011;19390;51.460;5.710;2022-11-15T13:59:34;3.28;;;0.70;;
33022;SDS011;19390;51.460;5.710;2022-11-15T14:02:10;4.50;;;0.70;;
33022;SDS011;19390;51.460;5.710;2022-11-15T14:04:46;4.45;;;0.70;;
33022;SDS011;19390;51.460;5.710;2022-11-15T14:07:16;5.30;;;0.60;;
33022;SDS011;19390;51.460;5.710;2022-11-15T14:09:44;8.10;;;0.90;;
33022;SDS011;19390;51.460;5.710;2022-11-15T14:18:00;3.45;;;1.08;;
33022;SDS011;19390;51.460;5.710;2022-11-15T14:20:34;4.88;;;0.75;;
33022;SDS011;19390;51.460;5.710;2022-11-15T14:23:02;4.00;;;0.77;;
33022;SDS011;19390;51.460;5.710;2022-11-15T14:25:31;2.47;;;0.98;;
33022;SDS011;19390;51.460;5.710;2022-11-15T14:28:15;3.08;;;1.00;;
33022;SDS011;19390;51.460;5.710;2022-11-15T14:30:47;2.70;;;0.90;;
33022;SDS011;19390;51.460;5.710;2022-11-15T14:33:22;2.92;;;0.68;;
33022;SDS011;19390;51.460;5.710;2022-11-15T14:35:53;3.40;;;1.05;;
33022;SDS011;19390;51.460;5.710;2022-11-15T14:38:20;3.05;;;0.70;;
33022;SDS011;19390;51.460;5.710;2022-11-15T14:40:46;4.25;;;1.00;;
33022;SDS011;19390;51.460;5.710;2022-11-15T14:43:12;4.55;;;0.90;;
33022;SDS011;19390;51.460;5.710;2022-11-15T14:45:39;3.47;;;1.05;;
33022;SDS011;19390;51.460;5.710;2022-11-15T14:48:05;3.22;;;0.85;;
33022;SDS011;19390;51.460;5.710;2022-11-15T14:50:31;5.50;;;1.27;;
33022;SDS011;19390;51.460;5.710;2022-11-15T14:52:57;5.25;;;0.98;;
33022;SDS011;19390;51.460;5.710;2022-11-15T14:57:54;5.53;;;0.98;;
33022;SDS011;19390;51.460;5.710;2022-11-15T15:00:20;5.30;;;1.10;;
33022;SDS011;19390;51.460;5.710;2022-11-15T15:02:47;4.35;;;1.00;;
33022;SDS011;19390;51.460;5.710;2022-11-15T15:07:45;3.80;;;1.20;;
33022;SDS011;19390;51.460;5.710;2022-11-15T15:10:12;7.95;;;1.40;;
33022;SDS011;19390;51.460;5.710;2022-11-15T15:12:38;3.10;;;1.05;;
33022;SDS011;19390;51.460;5.710;2022-11-15T15:15:04;3.72;;;0.90;;
33022;SDS011;19390;51.460;5.710;2022-11-15T15:17:31;3.67;;;0.98;;
33022;SDS011;19390;51.460;5.710;2022-11-15T15:19:56;4.15;;;1.02;;
33022;SDS011;19390;51.460;5.710;2022-11-15T15:22:22;4.32;;;1.30;;
33022;SDS011;19390;51.460;5.710;2022-11-15T15:24:51;3.92;;;1.60;;
33022;SDS011;19390;51.460;5.710;2022-11-15T15:27:16;3.58;;;1.27;;
33022;SDS011;19390;51.460;5.710;2022-11-15T15:29:42;5.75;;;1.40;;
33022;SDS011;19390;51.460;5.710;2022-11-15T15:32:08;4.72;;;0.80;;
33022;SDS011;19390;51.460;5.710;2022-11-15T15:34:35;3.60;;;0.80;;
33022;SDS011;19390;51.460;5.710;2022-11-15T15:37:06;2.40;;;1.08;;
33022;SDS011;19390;51.460;5.710;2022-11-15T15:39:32;5.43;;;0.90;;
33022;SDS011;19390;51.460;5.710;2022-11-15T15:41:57;4.18;;;1.13;;
33022;SDS011;19390;51.460;5.710;2022-11-15T15:44:23;2.72;;;1.02;;
33022;SDS011;19390;51.460;5.710;2022-11-15T15:46:49;3.75;;;1.10;;
33022;SDS011;19390;51.460;5.710;2022-11-15T15:49:14;3.70;;;1.10;;
33022;SDS011;19390;51.460;5.710;2022-11-15T15:51:40;5.00;;;1.17;;
33022;SDS011;19390;51.460;5.710;2022-11-15T15:54:06;5.47;;;1.30;;
33022;SDS011;19390;51.460;5.710;2022-11-15T15:56:32;4.57;;;2.53;;
33022;SDS011;19390;51.460;5.710;2022-11-15T15:58:57;2.92;;;0.90;;
33022;SDS011;19390;51.460;5.710;2022-11-15T16:01:23;5.10;;;1.45;;
33022;SDS011;19390;51.460;5.710;2022-11-15T16:03:49;5.55;;;1.17;;
33022;SDS011;19390;51.460;5.710;2022-11-15T16:09:16;4.32;;;2.13;;
33022;SDS011;19390;51.460;5.710;2022-11-15T16:11:44;3.65;;;1.23;;
33022;SDS011;19390;51.460;5.710;2022-11-15T16:14:10;5.18;;;1.30;;
33022;SDS011;19390;51.460;5.710;2022-11-15T16:16:37;3.67;;;1.30;;
33022;SDS011;19390;51.460;5.710;2022-11-15T16:19:03;3.80;;;1.50;;
33022;SDS011;19390;51.460;5.710;2022-11-15T16:21:29;7.82;;;2.83;;
33022;SDS011;19390;51.460;5.710;2022-11-15T16:23:55;8.10;;;1.90;;
33022;SDS011;19390;51.460;5.710;2022-11-15T16:26:21;7.50;;;2.15;;
33022;SDS011;19390;51.460;5.710;2022-11-15T16:28:51;61.72;;;15.80;;
33022;SDS011;19390;51.460;5.710;2022-11-15T16:31:17;14.80;;;3.55;;
33022;SDS011;19390;51.460;5.710;2022-11-15T16:33:45;10.18;;;4.57;;
33022;SDS011;19390;51.460;5.710;2022-11-15T16:36:24;73.80;;;20.15;;
33022;SDS011;19390;51.460;5.710;2022-11-15T16:38:51;7.05;;;2.63;;
33022;SDS011;19390;51.460;5.710;2022-11-15T16:41:17;16.80;;;11.90;;
33022;SDS011;19390;51.460;5.710;2022-11-15T16:43:44;3.20;;;1.70;;
33022;SDS011;19390;51.460;5.710;2022-11-15T16:46:16;4.72;;;2.55;;
33022;SDS011;19390;51.460;5.710;2022-11-15T16:48:42;7.68;;;3.38;;
33022;SDS011;19390;51.460;5.710;2022-11-15T16:51:08;6.85;;;3.00;;
33022;SDS011;19390;51.460;5.710;2022-11-15T16:53:34;5.43;;;2.50;;
33022;SDS011;19390;51.460;5.710;2022-11-15T16:56:00;6.07;;;2.38;;
33022;SDS011;19390;51.460;5.710;2022-11-15T16:58:26;8.00;;;4.10;;
33022;SDS011;19390;51.460;5.710;2022-11-15T17:00:52;6.50;;;2.90;;
33022;SDS011;19390;51.460;5.710;2022-11-15T17:03:20;4.53;;;2.67;;
33022;SDS011;19390;51.460;5.710;2022-11-15T17:05:46;6.95;;;2.72;;
33022;SDS011;19390;51.460;5.710;2022-11-15T17:08:12;5.70;;;2.78;;
33022;SDS011;19390;51.460;5.710;2022-11-15T17:10:38;5.40;;;3.13;;
33022;SDS011;19390;51.460;5.710;2022-11-15T17:13:11;10.70;;;3.90;;